Time;durP1;ratioP1;P1;durP2;ratioP2;P2;SDS_P1;SDS_P2;PMS_P1;PMS_P2;Temp;Humidity;BMP_temperature;BMP_pressure;BME280_temperature;BME280_humidity;BME280_pressure;Samples;Min_cycle;Max_cycle;Signal;HPM_P1;HPM_P2
2023/06/04 00:01:23;;;;;;;6.82;2.50;;;;;;;2.30;37.60;97283.97;5072498;28;20044;-50
2023/06/04 00:03:50;;;;;;;9.45;2.90;;;;;;;2.29;37.72;97289.38;5069361;28;20066;-52
2023/06/04 00:06:17;;;;;;;10.63;2.65;;;;;;;2.25;37.10;97293.34;5071444;28;20133;-52
2023/06/04 00:08:43;;;;;;;8.25;2.50;;;;;;;2.30;37.89;97296.22;5070376;28;20897;-52
2023/06/04 00:11:11;;;;;;;6.55;2.40;;;;;;;2.27;37.68;97281.72;5070801;28;20398;-50
2023/06/04 00:13:37;;;;;;;11.23;2.40;;;;;;;2.35;37.59;97279.97;5071503;28;20528;-50
2023/06/04 00:16:04;;;;;;;9.57;2.45;;;;;;;2.30;37.28;97289.19;5065920;28;20512;-53
2023/06/04 00:18:31;;;;;;;7.25;2.60;;;;;;;2.24;37.84;97276.88;5072600;28;20041;-52
2023/06/04 00:20:58;;;;;;;7.82;2.53;;;;;;;2.21;38.04;97279.84;5067712;28;20249;-53
2023/06/04 00:23:24;;;;;;;11.15;2.50;;;;;;;2.14;37.65;97276.34;5072174;28;20517;-53
2023/06/04 00:25:51;;;;;;;9.38;2.95;;;;;;;2.23;37.88;97280.47;5068553;28;20044;-52
2023/06/04 00:28:17;;;;;;;7.57;2.42;;;;;;;2.19;37.88;97284.44;5071905;28;20036;-50
2023/06/04 00:30:44;;;;;;;8.02;2.40;;;;;;;2.20;38.04;97277.41;5069801;28;20462;-52
2023/06/04 00:33:11;;;;;;;7.47;2.58;;;;;;;2.07;38.40;97270.22;5074227;28;20119;-52
2023/06/04 00:35:37;;;;;;;5.63;2.30;;;;;;;2.04;38.45;97274.03;5072237;28;20423;-52
2023/06/04 00:38:04;;;;;;;7.82;2.70;;;;;;;2.07;38.34;97273.69;5075915;28;20036;-52
2023/06/04 00:40:31;;;;;;;10.23;2.60;;;;;;;1.95;38.34;97269.91;5075952;28;20050;-53
2023/06/04 00:42:57;;;;;;;8.57;2.63;;;;;;;1.89;38.93;97271.47;5071336;28;20053;-53
2023/06/04 00:45:25;;;;;;;7.47;2.65;;;;;;;1.81;38.54;97270.75;5075441;28;20402;-52
2023/06/04 00:47:52;;;;;;;7.20;2.58;;;;;;;1.77;38.88;97272.13;5071164;28;20041;-52
2023/06/04 00:50:20;;;;;;;9.88;2.75;;;;;;;1.83;39.24;97274.78;5075053;28;20045;-52
2023/06/04 00:52:49;;;;;;;6.68;2.47;;;;;;;1.82;39.64;97267.97;5067669;28;20102;-52
2023/06/04 00:55:18;;;;;;;7.60;2.55;;;;;;;1.72;39.76;97268.22;5075265;28;20493;-51
2023/06/04 00:57:45;;;;;;;9.68;2.30;;;;;;;1.60;38.94;97269.69;5072654;28;20041;-51
2023/06/04 01:00:12;;;;;;;12.90;3.00;;;;;;;1.64;39.25;97267.53;5074905;28;20045;-50
2023/06/04 01:02:40;;;;;;;8.45;2.60;;;;;;;1.50;39.55;97274.38;5074205;28;20072;-52
2023/06/04 01:05:25;;;;;;;8.27;2.70;;;;;;;1.44;40.10;97262.06;5072556;28;20497;-53
2023/06/04 01:07:53;;;;;;;7.90;2.78;;;;;;;1.49;40.36;97267.53;5070982;28;20119;-52
2023/06/04 01:10:20;;;;;;;8.38;3.05;;;;;;;1.61;40.90;97267.88;5075586;28;20048;-52
2023/06/04 01:12:46;;;;;;;7.68;2.90;;;;;;;1.56;41.63;97270.22;5072034;28;20508;-52
2023/06/04 01:15:14;;;;;;;29.00;3.13;;;;;;;1.51;40.52;97266.38;5073724;28;20379;-52
2023/06/04 01:17:46;;;;;;;6.70;2.72;;;;;;;1.44;40.58;97270.69;5074103;28;20509;-52
2023/06/04 01:20:40;;;;;;;9.35;2.63;;;;;;;1.45;41.04;97268.88;5073526;28;20386;-52
2023/06/04 01:25:53;;;;;;;6.65;2.50;;;;;;;1.22;41.80;97271.56;5110824;27;20140;-52
2023/06/04 01:28:21;;;;;;;9.63;2.95;;;;;;;1.12;41.44;97272.66;5106257;28;20468;-51
2023/06/04 01:30:48;;;;;;;9.20;2.63;;;;;;;1.09;41.80;97267.81;5111012;28;20139;-51
2023/06/04 01:33:18;;;;;;;14.20;2.70;;;;;;;1.17;42.43;97279.16;5106253;28;20089;-50
2023/06/04 01:35:45;;;;;;;8.15;2.75;;;;;;;1.08;42.81;97265.38;5107413;28;20035;-51
2023/06/04 01:38:13;;;;;;;6.78;3.10;;;;;;;1.11;42.49;97275.44;5110536;28;20097;-51
2023/06/04 01:40:40;;;;;;;11.65;3.10;;;;;;;1.09;43.28;97265.19;5106355;28;20546;-51
2023/06/04 01:43:07;;;;;;;8.52;2.85;;;;;;;1.07;42.43;97274.19;5110869;28;20093;-51
2023/06/04 01:45:34;;;;;;;8.27;3.15;;;;;;;0.99;42.60;97269.03;5106049;28;20126;-50
2023/06/04 01:48:03;;;;;;;8.20;3.25;;;;;;;1.02;42.48;97272.13;5110532;28;20055;-52
2023/06/04 01:50:30;;;;;;;10.68;2.78;;;;;;;1.02;43.08;97268.66;5105258;28;20067;-51
2023/06/04 01:52:57;;;;;;;8.65;2.85;;;;;;;1.04;43.05;97274.56;5107984;28;20044;-52
2023/06/04 01:55:25;;;;;;;9.15;3.10;;;;;;;1.00;43.63;97268.88;5105626;28;20040;-51
2023/06/04 01:57:52;;;;;;;9.48;3.13;;;;;;;0.94;43.57;97272.19;5107394;28;20172;-51
2023/06/04 02:00:19;;;;;;;8.23;3.00;;;;;;;0.92;43.32;97271.53;5110242;28;20547;-51
2023/06/04 02:02:48;;;;;;;8.23;3.15;;;;;;;0.91;43.61;97275.13;5105599;28;20060;-51
2023/06/04 02:05:15;;;;;;;7.80;3.13;;;;;;;0.85;43.18;97271.44;5109712;28;20127;-50
2023/06/04 02:07:45;;;;;;;11.10;3.38;;;;;;;0.82;43.33;97266.59;5105671;28;20543;-52
2023/06/04 02:10:14;;;;;;;8.90;3.00;;;;;;;0.90;43.81;97270.91;5110396;28;20500;-53
2023/06/04 02:12:55;;;;;;;8.50;3.35;;;;;;;0.85;43.81;97270.63;5105412;28;20086;-52
2023/06/04 02:15:23;;;;;;;10.25;3.17;;;;;;;0.74;44.17;97264.84;5109937;28;20046;-52
2023/06/04 02:17:50;;;;;;;8.48;3.28;;;;;;;0.73;44.01;97260.63;5105881;28;20572;-52
2023/06/04 02:20:17;;;;;;;8.20;3.13;;;;;;;0.68;44.42;97262.94;5109689;28;20043;-53
2023/06/04 02:22:43;;;;;;;8.10;3.10;;;;;;;0.67;44.11;97260.50;5105080;28;20055;-51
2023/06/04 02:25:10;;;;;;;8.73;3.33;;;;;;;0.55;44.36;97263.53;5108990;28;20048;-50
2023/06/04 02:27:37;;;;;;;10.00;3.60;;;;;;;0.59;44.70;97269.22;5105373;28;20065;-52
2023/06/04 02:30:05;;;;;;;10.63;3.53;;;;;;;0.50;44.98;97263.25;5109914;28;20055;-51
2023/06/04 02:32:33;;;;;;;12.30;3.33;;;;;;;0.50;44.80;97268.47;5105147;28;20055;-52
2023/06/04 02:35:00;;;;;;;8.02;3.00;;;;;;;0.40;45.41;97261.88;5109251;28;20047;-52
2023/06/04 02:37:26;;;;;;;9.73;3.00;;;;;;;0.44;45.09;97265.75;5090951;28;20047;-52
2023/06/04 02:39:53;;;;;;;9.57;3.35;;;;;;;0.36;45.73;97274.44;5096313;28;20055;-51
2023/06/04 02:42:20;;;;;;;7.88;2.90;;;;;;;0.37;46.16;97276.88;5092322;28;20394;-53
2023/06/04 02:44:47;;;;;;;9.95;3.75;;;;;;;0.34;46.29;97272.00;5096159;28;20052;-53
2023/06/04 02:47:14;;;;;;;8.25;2.90;;;;;;;0.33;45.65;97270.41;5090950;28;20094;-51
2023/06/04 02:49:40;;;;;;;13.45;3.20;;;;;;;0.27;47.16;97270.25;5095193;28;20040;-53
2023/06/04 02:52:08;;;;;;;8.88;2.92;;;;;;;0.01;46.47;97266.19;5091176;28;20047;-48
2023/06/04 02:54:34;;;;;;;13.00;3.00;;;;;;;0.02;47.04;97267.84;5095548;28;20040;-49
2023/06/04 02:57:03;;;;;;;8.00;2.92;;;;;;;0.03;46.69;97258.22;5090815;28;20036;-50
2023/06/04 02:59:30;;;;;;;10.38;3.20;;;;;;;0.02;46.97;97265.22;5095845;28;20048;-49
2023/06/04 03:01:56;;;;;;;11.27;3.25;;;;;;;0.05;47.19;97266.66;5091128;28;20071;-51
2023/06/04 03:04:23;;;;;;;9.75;3.22;;;;;;;-0.01;47.27;97265.56;5095492;28;20135;-52
2023/06/04 03:06:57;;;;;;;9.55;3.00;;;;;;;-0.04;47.45;97278.91;5092032;28;20127;-52
2023/06/04 03:09:24;;;;;;;9.57;3.08;;;;;;;-0.08;48.61;97275.84;5095860;28;20044;-52
2023/06/04 03:11:51;;;;;;;9.75;3.40;;;;;;;-0.12;48.92;97274.56;5090956;28;20093;-53
2023/06/04 03:14:18;;;;;;;11.23;3.67;;;;;;;-0.07;48.54;97276.69;5095407;28;20036;-52
2023/06/04 03:16:45;;;;;;;10.05;3.58;;;;;;;-0.15;49.14;97272.28;5090719;28;20068;-52
2023/06/04 03:19:12;;;;;;;10.18;3.10;;;;;;;-0.16;49.12;97272.47;5095349;28;20569;-53
2023/06/04 03:21:39;;;;;;;8.27;3.05;;;;;;;-0.22;49.77;97281.78;5090989;28;20417;-52
2023/06/04 03:24:06;;;;;;;8.18;3.33;;;;;;;-0.25;49.63;97279.53;5094590;28;20139;-53
2023/06/04 03:26:33;;;;;;;10.98;3.25;;;;;;;-0.31;50.26;97274.97;5090411;28;20493;-51
2023/06/04 03:29:00;;;;;;;10.15;3.78;;;;;;;-0.34;50.42;97277.94;5095059;28;20422;-52
2023/06/04 03:31:27;;;;;;;8.57;3.13;;;;;;;-0.33;50.35;97277.75;5091802;28;20052;-51
2023/06/04 03:33:56;;;;;;;8.55;3.13;;;;;;;-0.36;50.66;97279.88;5094930;28;20505;-52
2023/06/04 03:36:31;;;;;;;10.15;3.33;;;;;;;-0.34;51.21;97275.34;5090017;28;20051;-52
2023/06/04 03:38:58;;;;;;;10.25;3.33;;;;;;;-0.43;51.26;97264.94;5094972;28;20488;-52
2023/06/04 03:41:26;;;;;;;11.45;3.10;;;;;;;-0.51;51.13;97275.41;5090408;28;20040;-52
2023/06/04 03:43:53;;;;;;;7.78;3.28;;;;;;;-0.56;52.21;97280.31;5094981;28;20538;-51
2023/06/04 03:46:20;;;;;;;9.75;3.40;;;;;;;-0.66;52.20;97271.84;5090082;28;20047;-53
2023/06/04 03:48:47;;;;;;;8.77;3.10;;;;;;;-0.57;52.14;97276.06;5089922;28;20048;-53
2023/06/04 03:51:15;;;;;;;9.35;3.10;;;;;;;-0.55;52.25;97275.91;5094617;28;20074;-53
2023/06/04 03:53:43;;;;;;;10.85;3.30;;;;;;;-0.53;52.46;97279.13;5059238;28;20048;-52
2023/06/04 03:56:10;;;;;;;11.88;3.88;;;;;;;-0.54;52.59;97282.75;5093307;28;20105;-52
2023/06/04 03:58:37;;;;;;;11.82;3.40;;;;;;;-0.71;52.83;97267.16;5092645;28;20048;-53
2023/06/04 04:01:05;;;;;;;10.90;3.15;;;;;;;-0.70;52.98;97273.97;5091284;28;20048;-53
2023/06/04 04:03:34;;;;;;;11.05;3.15;;;;;;;-0.61;53.01;97272.97;5094595;28;20067;-53
2023/06/04 04:06:01;;;;;;;10.18;3.25;;;;;;;-0.54;53.08;97273.13;5090159;28;20153;-53
2023/06/04 04:08:31;;;;;;;9.48;3.25;;;;;;;-0.54;52.65;97273.13;5090914;28;20050;-52
2023/06/04 04:10:58;;;;;;;10.35;3.30;;;;;;;-0.43;52.72;97272.75;5094462;28;20044;-52
2023/06/04 04:13:25;;;;;;;15.88;3.20;;;;;;;-0.48;52.38;97272.44;5089945;28;20071;-52
2023/06/04 04:15:53;;;;;;;10.07;3.10;;;;;;;-0.57;53.50;97276.06;5093791;28;20044;-52
2023/06/04 04:18:21;;;;;;;10.80;3.50;;;;;;;-0.45;53.24;97276.53;5089627;28;20048;-53
2023/06/04 04:20:48;;;;;;;12.70;3.20;;;;;;;-0.46;53.51;97278.28;5094227;28;20097;-52
2023/06/04 04:23:16;;;;;;;9.63;3.42;;;;;;;-0.47;53.40;97281.09;5089607;28;20044;-53
2023/06/04 04:25:44;;;;;;;12.05;5.05;;;;;;;-0.49;52.81;97280.41;5093366;28;20078;-53
2023/06/04 04:28:11;;;;;;;9.48;3.08;;;;;;;-0.51;53.81;97271.97;5089741;28;20130;-51
2023/06/04 04:30:40;;;;;;;8.93;3.05;;;;;;;-0.42;53.17;97274.38;5090276;28;20489;-51
2023/06/04 04:33:08;;;;;;;11.75;3.20;;;;;;;-0.47;52.91;97273.28;5094228;28;20064;-51
2023/06/04 04:35:39;;;;;;;11.95;3.53;;;;;;;-0.37;54.69;97273.88;5089020;28;20051;-52
2023/06/04 04:38:07;;;;;;;8.23;3.30;;;;;;;-0.31;54.05;97270.59;5093839;28;20134;-51
2023/06/04 04:40:40;;;;;;;10.25;3.20;;;;;;;-0.28;52.91;97278.06;5089070;28;20047;-53
2023/06/04 04:43:08;;;;;;;10.88;3.28;;;;;;;-0.25;53.86;97277.72;5093999;28;20049;-51
2023/06/04 04:45:36;;;;;;;11.55;3.63;;;;;;;-0.24;54.00;97279.38;5088947;28;20048;-52
2023/06/04 04:48:05;;;;;;;10.55;3.28;;;;;;;-0.17;53.93;97281.28;5093436;28;20448;-50
2023/06/04 04:50:32;;;;;;;10.57;3.28;;;;;;;-0.27;53.75;97278.91;5089621;28;20043;-53
2023/06/04 04:53:01;;;;;;;12.57;3.50;;;;;;;-0.31;52.97;97282.78;5093330;28;20076;-51
2023/06/04 04:55:29;;;;;;;7.38;3.00;;;;;;;-0.34;53.09;97278.75;5088471;28;20044;-50
2023/06/04 04:57:56;;;;;;;9.10;3.20;;;;;;;-0.36;53.25;97272.06;5093456;28;20075;-53
2023/06/04 05:00:24;;;;;;;9.32;3.38;;;;;;;-0.24;52.15;97278.53;5088793;28;20093;-50
2023/06/04 05:02:53;;;;;;;8.68;3.13;;;;;;;-0.19;52.48;97271.03;5093458;28;20105;-52
2023/06/04 05:05:21;;;;;;;13.23;3.15;;;;;;;-0.09;52.14;97269.03;5088357;28;20153;-53
2023/06/04 05:07:49;;;;;;;8.32;3.03;;;;;;;0.05;52.66;97269.28;5093156;28;20097;-52
2023/06/04 05:10:17;;;;;;;9.32;2.90;;;;;;;0.08;54.46;97269.75;5085584;28;20105;-51
2023/06/04 05:13:01;;;;;;;7.32;2.95;;;;;;;0.11;54.39;97268.56;5093374;28;20044;-52
2023/06/04 05:15:35;;;;;;;10.50;2.97;;;;;;;0.12;53.08;97276.22;5088436;28;20051;-53
2023/06/04 05:18:03;;;;;;;11.05;3.15;;;;;;;0.15;52.95;97273.28;5093381;28;20290;-51
2023/06/04 05:20:35;;;;;;;11.75;2.97;;;;;;;0.19;52.11;97276.34;5088881;28;20131;-52
2023/06/04 05:23:02;;;;;;;9.02;2.90;;;;;;;0.20;51.20;97285.81;5093274;28;20044;-50
2023/06/04 05:25:29;;;;;;;10.90;3.15;;;;;;;0.29;50.48;97286.53;5087928;28;20071;-51
2023/06/04 05:27:56;;;;;;;13.80;2.85;;;;;;;0.36;50.25;97288.31;5093248;28;20086;-53
2023/06/04 05:30:23;;;;;;;9.40;2.50;;;;;;;0.44;49.86;97292.66;5090228;28;20048;-52
2023/06/04 05:32:50;;;;;;;10.27;2.75;;;;;;;0.35;47.29;97291.88;5093021;28;20040;-51
2023/06/04 05:35:19;;;;;;;6.72;2.75;;;;;;;0.45;48.05;97290.84;5086989;28;20044;-51
2023/06/04 05:37:45;;;;;;;11.35;3.05;;;;;;;0.55;48.29;97292.22;5092909;28;20442;-52
2023/06/04 05:40:15;;;;;;;12.27;2.70;;;;;;;0.61;49.19;97289.91;5088600;28;20390;-53
2023/06/04 05:42:42;;;;;;;15.70;3.55;;;;;;;0.66;48.62;97293.63;5092928;28;20131;-52
2023/06/04 05:45:09;;;;;;;10.38;2.85;;;;;;;0.72;49.32;97297.31;5088359;28;20044;-52
2023/06/04 05:47:38;;;;;;;10.50;3.10;;;;;;;0.64;48.42;97289.56;5089784;28;20478;-53
2023/06/04 05:50:05;;;;;;;14.48;2.90;;;;;;;0.77;47.09;97298.41;5092211;28;20083;-52
2023/06/04 05:52:35;;;;;;;8.57;2.50;;;;;;;0.84;47.05;97303.75;5088591;28;20040;-51
2023/06/04 05:55:02;;;;;;;7.65;2.60;;;;;;;0.95;47.54;97300.72;5073627;28;20059;-50
2023/06/04 05:57:29;;;;;;;10.38;2.50;;;;;;;1.00;47.22;97302.81;5088249;28;20043;-51
2023/06/04 05:59:56;;;;;;;6.28;2.58;;;;;;;1.15;48.19;97300.22;5092357;28;20044;-50
2023/06/04 06:02:23;;;;;;;10.40;3.00;;;;;;;1.22;48.90;97306.34;5088636;28;20040;-53
2023/06/04 06:04:50;;;;;;;9.05;2.70;;;;;;;1.27;48.71;97311.03;5092431;28;20078;-53
2023/06/04 06:07:18;;;;;;;9.43;2.70;;;;;;;1.29;47.87;97309.88;5088360;28;20052;-52
2023/06/04 06:09:45;;;;;;;9.23;2.80;;;;;;;1.42;48.28;97309.25;5089515;28;20044;-52
2023/06/04 06:12:12;;;;;;;7.18;2.72;;;;;;;1.45;48.29;97316.72;5095745;28;20048;-53
2023/06/04 06:14:40;;;;;;;8.98;2.78;;;;;;;1.50;47.14;97318.78;5095708;28;20127;-53
2023/06/04 06:17:07;;;;;;;9.80;2.97;;;;;;;1.53;45.88;97327.09;5093473;28;20481;-52
2023/06/04 06:19:35;;;;;;;13.10;3.33;;;;;;;1.61;44.99;97320.16;5096688;28;20044;-53
2023/06/04 06:22:02;;;;;;;8.20;2.70;;;;;;;1.71;46.26;97324.13;5093060;28;20048;-53
2023/06/04 06:24:29;;;;;;;7.47;2.72;;;;;;;1.76;45.99;97331.41;5096164;28;20048;-53
2023/06/04 06:26:56;;;;;;;9.52;2.80;;;;;;;1.84;45.92;97326.09;5091612;28;20044;-53
2023/06/04 06:29:23;;;;;;;8.98;2.85;;;;;;;1.89;46.45;97333.38;5094766;28;20123;-51
2023/06/04 06:31:51;;;;;;;8.85;2.72;;;;;;;1.96;46.41;97330.84;5096337;28;20048;-52
2023/06/04 06:34:17;;;;;;;9.30;2.85;;;;;;;2.03;44.66;97339.56;5095978;28;20499;-53
2023/06/04 06:36:44;;;;;;;7.07;2.30;;;;;;;2.15;44.91;97347.75;5091586;28;20044;-53
2023/06/04 06:39:11;;;;;;;11.70;3.15;;;;;;;2.21;44.89;97340.00;5096222;28;20070;-52
2023/06/04 06:41:38;;;;;;;9.38;3.00;;;;;;;2.24;44.77;97350.09;5090263;28;20059;-52
2023/06/04 06:44:08;;;;;;;7.15;2.50;;;;;;;2.37;43.05;97348.63;5096251;28;20056;-53
2023/06/04 06:46:35;;;;;;;7.57;2.90;;;;;;;2.43;43.28;97359.16;5091216;28;20058;-52
2023/06/04 06:49:01;;;;;;;8.63;2.53;;;;;;;2.47;42.67;97354.34;5095646;28;20047;-53
2023/06/04 06:51:28;;;;;;;6.95;3.20;;;;;;;2.54;43.82;97349.22;5092366;28;20055;-54
2023/06/04 06:53:54;;;;;;;9.35;2.72;;;;;;;2.60;43.41;97358.91;5095494;28;20036;-51
2023/06/04 06:56:22;;;;;;;11.98;3.10;;;;;;;2.65;43.67;97352.13;5091066;28;20036;-51
2023/06/04 06:58:48;;;;;;;11.20;3.42;;;;;;;2.73;43.52;97356.44;5095537;28;20108;-53
2023/06/04 07:01:15;;;;;;;9.43;3.17;;;;;;;2.75;45.37;97351.84;5091499;28;20101;-53
2023/06/04 07:03:42;;;;;;;10.52;3.50;;;;;;;2.82;43.72;97352.72;5095597;28;20044;-52
2023/06/04 07:06:09;;;;;;;8.77;2.90;;;;;;;2.87;43.12;97359.97;5077002;28;20048;-54
2023/06/04 07:08:36;;;;;;;8.55;3.00;;;;;;;2.95;41.72;97366.91;5087395;28;20051;-54
2023/06/04 07:11:03;;;;;;;8.88;3.10;;;;;;;3.02;41.71;97365.97;5095244;28;20055;-53
2023/06/04 07:13:32;;;;;;;9.10;2.83;;;;;;;3.10;40.96;97359.78;5091415;28;20056;-53
2023/06/04 07:15:59;;;;;;;8.43;3.03;;;;;;;3.19;41.90;97368.34;5095242;28;20123;-52
2023/06/04 07:18:25;;;;;;;8.20;2.80;;;;;;;3.23;42.38;97361.72;5090950;28;20048;-54
2023/06/04 07:20:52;;;;;;;6.53;2.90;;;;;;;3.32;41.54;97367.63;5095477;28;20067;-50
2023/06/04 07:23:20;;;;;;;7.07;3.03;;;;;;;3.41;41.22;97367.28;5090760;28;20059;-53
2023/06/04 07:25:46;;;;;;;18.25;3.33;;;;;;;3.48;41.30;97372.59;5094414;28;20496;-51
2023/06/04 07:28:13;;;;;;;10.55;3.33;;;;;;;3.54;40.34;97368.38;5090765;28;20055;-52
2023/06/04 07:30:40;;;;;;;9.88;3.22;;;;;;;3.65;40.27;97376.50;5094941;28;20051;-53
2023/06/04 07:33:06;;;;;;;10.00;3.40;;;;;;;3.71;40.04;97376.75;5092086;28;20072;-53
2023/06/04 07:35:33;;;;;;;10.18;3.45;;;;;;;3.74;40.76;97379.81;5094843;28;20036;-53
2023/06/04 07:38:00;;;;;;;13.77;3.70;;;;;;;3.81;40.60;97375.41;5090428;28;20752;-52
2023/06/04 07:40:27;;;;;;;10.40;3.67;;;;;;;3.96;40.17;97374.47;5094758;28;20075;-53
2023/06/04 07:42:53;;;;;;;10.00;3.85;;;;;;;4.13;38.78;97378.41;5090745;28;20076;-51
2023/06/04 07:45:20;;;;;;;8.00;3.28;;;;;;;4.19;39.37;97371.56;5094681;28;20515;-54
2023/06/04 07:47:47;;;;;;;8.00;3.72;;;;;;;4.23;38.79;97378.84;5091810;28;20044;-54
2023/06/04 07:50:14;;;;;;;9.07;3.58;;;;;;;4.33;39.50;97378.50;5092828;28;20051;-53
2023/06/04 07:52:40;;;;;;;10.95;3.60;;;;;;;4.31;38.68;97363.94;5092808;28;20040;-53
2023/06/04 07:55:08;;;;;;;10.63;3.72;;;;;;;4.42;38.95;97374.69;5080629;28;20062;-51
2023/06/04 07:57:34;;;;;;;10.60;3.58;;;;;;;4.44;38.73;97377.13;5089510;28;20567;-53
2023/06/04 08:00:04;;;;;;;9.32;3.70;;;;;;;4.52;39.01;97373.50;5092208;28;20059;-54
2023/06/04 08:02:40;;;;;;;10.25;4.18;;;;;;;4.61;39.38;97372.31;5090127;28;20048;-54
2023/06/04 08:05:07;;;;;;;11.57;3.65;;;;;;;4.70;38.75;97372.94;5094209;28;20044;-54
2023/06/04 08:07:33;;;;;;;9.60;3.42;;;;;;;4.77;37.87;97376.41;5089764;28;20049;-54
2023/06/04 08:10:00;;;;;;;14.80;3.40;;;;;;;4.80;38.19;97374.19;5094155;28;20044;-54
2023/06/04 08:12:27;;;;;;;9.40;4.03;;;;;;;4.94;38.84;97374.19;5089993;28;20059;-54
2023/06/04 08:14:56;;;;;;;12.15;3.67;;;;;;;5.09;38.59;97381.88;5094345;28;20133;-53
2023/06/04 08:17:23;;;;;;;14.23;3.55;;;;;;;5.14;37.69;97390.78;5088034;28;20044;-54
2023/06/04 08:19:56;;;;;;;9.00;3.53;;;;;;;5.21;36.91;97390.81;5094133;28;20052;-54
2023/06/04 08:22:35;;;;;;;10.32;3.28;;;;;;;5.41;38.05;97379.50;5092718;28;20048;-53
2023/06/04 08:25:22;;;;;;;11.38;4.40;;;;;;;5.48;37.37;97380.28;5092219;28;20405;-53
2023/06/04 08:28:08;;;;;;;10.48;3.25;;;;;;;5.46;36.75;97382.31;5089335;28;20048;-53
2023/06/04 08:30:55;;;;;;;8.95;3.42;;;;;;;5.56;36.67;97383.50;5093597;28;20048;-55
2023/06/04 08:33:37;;;;;;;9.25;3.20;;;;;;;5.55;35.00;97387.16;5089160;28;20129;-54
2023/06/04 08:36:08;;;;;;;9.10;3.23;;;;;;;5.52;35.03;97389.38;5093771;28;20046;-52
2023/06/04 08:38:35;;;;;;;10.20;3.05;;;;;;;5.68;35.21;97396.84;5089831;28;20054;-52
2023/06/04 08:41:13;;;;;;;12.13;2.88;;;;;;;5.83;34.79;97396.63;5093828;28;20066;-52
2023/06/04 08:43:41;;;;;;;10.07;3.13;;;;;;;5.94;34.99;97398.63;5089354;28;20077;-53
2023/06/04 08:46:08;;;;;;;7.28;2.90;;;;;;;6.21;34.47;97393.31;5093604;28;20109;-52
2023/06/04 08:48:37;;;;;;;7.88;3.00;;;;;;;6.35;34.70;97402.00;5088090;28;20040;-53
2023/06/04 08:51:08;;;;;;;13.63;3.05;;;;;;;6.19;34.47;97392.72;5093168;28;20132;-53
2023/06/04 08:53:36;;;;;;;8.65;2.92;;;;;;;6.04;34.46;97398.25;5089566;28;20393;-53
2023/06/04 08:56:03;;;;;;;7.72;2.83;;;;;;;6.02;33.50;97404.72;5093997;28;20094;-52
2023/06/04 08:58:33;;;;;;;6.95;2.72;;;;;;;6.15;33.66;97408.13;5088861;28;20055;-53
2023/06/04 09:01:01;;;;;;;9.73;2.95;;;;;;;6.27;33.74;97407.47;5093488;28;20044;-52
2023/06/04 09:03:31;;;;;;;10.13;2.70;;;;;;;6.22;33.68;97400.22;5090188;28;20427;-53
2023/06/04 09:05:59;;;;;;;7.13;2.88;;;;;;;6.37;34.43;97401.75;5093424;28;20390;-53
2023/06/04 09:08:27;;;;;;;11.38;2.85;;;;;;;6.43;33.96;97403.56;5088853;28;20072;-52
2023/06/04 09:10:54;;;;;;;12.77;3.10;;;;;;;6.41;33.73;97406.41;5093539;28;20048;-54
2023/06/04 09:13:26;;;;;;;9.05;2.90;;;;;;;6.67;33.83;97407.31;5089092;28;20052;-52
2023/06/04 09:16:02;;;;;;;13.95;3.20;;;;;;;6.71;33.16;97411.97;5093162;28;20036;-53
2023/06/04 09:18:29;;;;;;;10.55;3.00;;;;;;;6.82;33.57;97404.41;5088599;28;20242;-51
2023/06/04 09:21:11;;;;;;;7.88;2.65;;;;;;;6.82;32.76;97410.50;5093292;28;20067;-52
2023/06/04 09:23:45;;;;;;;;;;;;;;;6.71;32.54;97416.41;5088820;28;20566;-53
2023/06/04 09:26:12;;;;;;;6.93;2.67;;;;;;;6.97;32.86;97415.47;5089726;28;20380;-52
2023/06/04 09:28:41;;;;;;;6.90;2.88;;;;;;;7.17;32.56;97422.41;5092913;28;20076;-53
2023/06/04 09:31:10;;;;;;;10.93;2.92;;;;;;;6.96;32.79;97413.03;5088818;28;20523;-52
2023/06/04 09:33:52;;;;;;;8.77;2.97;;;;;;;6.91;32.54;97411.84;5093161;28;20070;-52
2023/06/04 09:36:19;;;;;;;7.53;2.65;;;;;;;7.09;32.51;97415.59;5088635;28;20036;-53
2023/06/04 09:38:45;;;;;;;8.95;3.05;;;;;;;7.02;32.81;97410.38;5092795;28;20123;-53
2023/06/04 09:41:19;;;;;;;7.18;2.67;;;;;;;7.15;32.79;97412.13;5088454;28;20040;-53
2023/06/04 09:43:46;;;;;;;8.05;2.65;;;;;;;7.09;32.22;97419.06;5093735;28;20055;-53
2023/06/04 09:46:15;;;;;;;7.50;2.88;;;;;;;7.15;32.45;97419.19;5088751;28;20040;-53
2023/06/04 09:48:42;;;;;;;10.30;2.90;;;;;;;7.15;32.64;97404.22;5093290;28;20052;-53
2023/06/04 09:51:15;;;;;;;9.60;3.03;;;;;;;7.56;32.83;97421.31;5096710;28;20044;-51
2023/06/04 09:53:41;;;;;;;11.00;2.78;;;;;;;7.63;31.94;97414.16;5088378;28;20426;-51
2023/06/04 09:56:10;;;;;;;8.95;3.15;;;;;;;7.59;32.47;97420.09;5062535;28;20063;-51
2023/06/04 09:58:38;;;;;;;9.15;2.72;;;;;;;8.00;33.11;97424.78;5091222;28;20048;-50
2023/06/04 10:01:06;;;;;;;14.57;3.22;;;;;;;8.39;31.84;97425.41;5097310;28;20456;-53
2023/06/04 10:03:47;;;;;;;11.23;3.08;;;;;;;8.50;31.17;97431.81;5106172;27;20869;-52
2023/06/04 10:06:16;;;;;;;9.10;2.58;;;;;;;8.73;30.72;97430.31;5106178;28;20080;-50
2023/06/04 10:08:43;;;;;;;11.30;3.15;;;;;;;8.75;30.34;97431.72;5110749;28;20039;-52
2023/06/04 10:11:11;;;;;;;10.63;2.90;;;;;;;8.49;30.60;97437.31;5106620;28;20074;-52
2023/06/04 10:13:48;;;;;;;11.75;2.85;;;;;;;8.50;30.79;97429.16;5111044;28;20063;-51
2023/06/04 10:16:15;;;;;;;8.95;2.83;;;;;;;8.49;30.81;97424.09;5106244;28;20046;-53
2023/06/04 10:18:47;;;;;;;13.10;2.97;;;;;;;8.42;30.28;97440.03;5110654;28;20048;-53
2023/06/04 10:21:14;;;;;;;8.52;2.60;;;;;;;8.46;30.30;97422.72;5105625;28;20075;-53
2023/06/04 10:23:44;;;;;;;11.05;2.75;;;;;;;8.62;30.95;97424.75;5106857;28;20051;-52
2023/06/04 10:26:14;;;;;;;9.82;3.05;;;;;;;9.02;30.58;97434.81;5110722;28;20105;-53
2023/06/04 10:28:41;;;;;;;9.50;2.88;;;;;;;8.91;29.43;97426.81;5106325;28;20429;-53
2023/06/04 10:31:10;;;;;;;12.25;2.70;;;;;;;8.45;29.92;97413.97;5110539;28;20075;-52
2023/06/04 10:33:37;;;;;;;9.48;2.65;;;;;;;8.47;30.70;97418.25;5105791;28;20477;-53
2023/06/04 10:36:21;;;;;;;7.70;2.67;;;;;;;8.84;30.72;97421.63;5110320;28;20043;-53
2023/06/04 10:38:50;;;;;;;8.68;2.88;;;;;;;8.98;30.02;97420.41;5105687;28;20497;-53
2023/06/04 10:41:22;;;;;;;10.20;2.75;;;;;;;8.59;29.70;97425.19;5110471;28;20461;-54
2023/06/04 10:43:50;;;;;;;7.05;2.50;;;;;;;8.94;30.33;97418.44;5105888;28;20048;-52
2023/06/04 10:46:19;;;;;;;9.75;2.45;;;;;;;9.23;29.91;97427.41;5107095;28;20044;-53
2023/06/04 10:48:50;;;;;;;9.75;2.90;;;;;;;9.46;30.61;97433.75;5109404;28;20173;-53
2023/06/04 10:51:34;;;;;;;11.50;2.85;;;;;;;9.45;29.14;97430.31;5105648;28;20044;-51
2023/06/04 10:54:02;;;;;;;9.57;3.10;;;;;;;9.02;29.48;97421.59;5110033;28;20040;-53
2023/06/04 10:56:31;;;;;;;9.30;2.83;;;;;;;9.22;29.42;97420.47;5105453;28;20089;-54
2023/06/04 10:59:12;;;;;;;8.48;2.70;;;;;;;9.29;29.67;97428.31;5110031;28;20135;-53
2023/06/04 11:01:40;;;;;;;7.90;2.55;;;;;;;9.76;30.04;97413.31;5105096;28;20044;-53
2023/06/04 11:04:06;;;;;;;10.07;2.95;;;;;;;9.97;29.03;97429.69;5108779;28;20407;-53
2023/06/04 11:06:35;;;;;;;10.05;3.17;;;;;;;9.66;29.08;97428.16;5100183;28;20040;-53
2023/06/04 11:09:04;;;;;;;9.85;2.80;;;;;;;9.75;29.51;97426.78;5109807;28;20043;-53
2023/06/04 11:11:32;;;;;;;10.13;2.80;;;;;;;10.18;28.20;97430.91;5105293;28;20048;-54
2023/06/04 11:14:13;;;;;;;13.65;2.78;;;;;;;10.55;28.68;97417.38;5102325;28;20105;-53
2023/06/04 11:16:40;;;;;;;7.70;2.80;;;;;;;10.12;28.29;97418.59;5091416;28;20054;-53
2023/06/04 11:19:07;;;;;;;7.53;2.83;;;;;;;10.29;29.20;97422.13;5095627;28;20093;-52
2023/06/04 11:21:38;;;;;;;12.90;3.10;;;;;;;10.18;28.55;97418.47;5091899;28;20493;-53
2023/06/04 11:24:05;;;;;;;6.77;2.70;;;;;;;10.15;28.58;97420.78;5095567;28;20052;-52
2023/06/04 11:26:34;;;;;;;7.47;2.95;;;;;;;10.18;29.05;97415.03;5092585;28;20384;-53
2023/06/04 11:29:11;;;;;;;7.40;2.60;;;;;;;10.43;28.63;97414.78;5096099;28;20050;-51
2023/06/04 11:31:47;;;;;;;7.82;2.90;;;;;;;10.10;28.50;97404.81;5090137;28;20067;-53
2023/06/04 11:34:31;;;;;;;9.88;3.00;;;;;;;10.08;28.79;97410.31;5094559;28;20108;-53
2023/06/04 11:37:13;;;;;;;11.07;3.20;;;;;;;10.10;28.46;97410.09;5090974;28;20044;-51
2023/06/04 11:39:42;;;;;;;7.95;2.97;;;;;;;10.05;28.03;97407.34;5084391;28;20051;-52
2023/06/04 11:42:10;;;;;;;10.57;2.92;;;;;;;10.35;28.80;97415.13;5083831;28;20044;-55
2023/06/04 11:44:38;;;;;;;12.00;3.00;;;;;;;9.95;28.43;97410.53;5074394;28;20063;-52
2023/06/04 11:47:07;;;;;;;9.50;3.00;;;;;;;10.11;29.05;97409.03;5095355;28;20426;-52